Stanford, Minnesota
Current Conditions -  °F | °C
As of 12:36 AM on Saturday 20 Dec 2014 (Local Time) from KCBG Reporting Station
Overcast Overcast  
Wind Chill: 23°   Ceiling: 1100
Heat Index: 30°   Visibility: 7mi
Dew Point: 21°   Wind: 7mph
Humidity: 69%   Direction: 150°SSE
Pressure: 30.13"   Gusts: NA
Location:  45.6667°N, 93.2669°W
Report Text: KCBG 200636Z AUTO 15006KT 7SM OVC011 M01/M06 A3013 RMK AO2
Loading
Personal Weather Stations






























Interactive Weather Map New forecast layout! Learn more

10-Day Weather Forecast

Advertisements
Track Severe Weather on mobile